Time;durP1;ratioP1;P1;durP2;ratioP2;P2;SDS_P1;SDS_P2;PMS_P1;PMS_P2;Temp;Humidity;BMP_temperature;BMP_pressure;BME280_temperature;BME280_humidity;BME280_pressure;Samples;Min_cycle;Max_cycle;Signal;HPM_P1;HPM_P2
2021/06/21 00:00:14;;;;;;;7.70;2.00;;;21.30;99.90;;;;;;1867116;75;21081;-69
2021/06/21 00:02:42;;;;;;;8.88;2.85;;;21.30;99.90;;;;;;1874566;75;21065;-69
2021/06/21 00:05:12;;;;;;;6.70;2.47;;;21.30;99.90;;;;;;1865530;75;21468;-68
2021/06/21 00:07:40;;;;;;;5.35;2.50;;;21.30;99.90;;;;;;1880318;75;21546;-68
2021/06/21 00:10:09;;;;;;;7.62;3.00;;;21.30;99.90;;;;;;1878368;75;21178;-68
2021/06/21 00:12:40;;;;;;;7.87;3.08;;;21.30;99.90;;;;;;1877631;75;21097;-68
2021/06/21 00:15:08;;;;;;;7.37;2.90;;;21.30;99.90;;;;;;1883492;75;21655;-69
2021/06/21 00:17:36;;;;;;;8.70;3.25;;;21.30;99.90;;;;;;1856676;76;21139;-68
2021/06/21 00:20:05;;;;;;;7.62;3.05;;;21.30;99.90;;;;;;1857119;76;21150;-68
2021/06/21 00:22:33;;;;;;;7.42;3.10;;;21.20;99.90;;;;;;1879059;75;21073;-68
2021/06/21 00:25:00;;;;;;;8.40;3.40;;;21.20;99.90;;;;;;1878094;75;21163;-68
2021/06/21 00:27:28;;;;;;;8.25;3.45;;;21.20;99.90;;;;;;1879085;75;21090;-68
2021/06/21 00:29:55;;;;;;;6.35;3.80;;;21.20;99.90;;;;;;1878814;75;21355;-68
2021/06/21 00:32:23;;;;;;;11.78;4.25;;;21.20;99.90;;;;;;1878896;75;21539;-68
2021/06/21 00:34:50;;;;;;;10.53;3.77;;;21.20;99.90;;;;;;1878286;75;21085;-68
2021/06/21 00:37:18;;;;;;;8.33;4.45;;;21.10;99.90;;;;;;1873091;75;21112;-68
2021/06/21 00:39:45;;;;;;;7.00;3.62;;;21.10;99.90;;;;;;1878810;75;21092;-68
2021/06/21 00:42:13;;;;;;;9.58;3.83;;;21.10;99.90;;;;;;1878806;75;21606;-68
2021/06/21 00:44:40;;;;;;;8.25;4.08;;;21.20;99.90;;;;;;1881375;75;21120;-68
2021/06/21 00:47:08;;;;;;;12.68;4.50;;;21.10;99.90;;;;;;1863077;75;21120;-68
2021/06/21 00:49:35;;;;;;;12.47;4.05;;;21.10;99.90;;;;;;1861488;76;21116;-69
2021/06/21 00:52:04;;;;;;;8.88;4.47;;;21.20;99.90;;;;;;1854192;75;21174;-68
2021/06/21 00:54:31;;;;;;;9.38;4.25;;;21.10;99.90;;;;;;1878789;76;21618;-69
2021/06/21 00:56:59;;;;;;;8.80;4.08;;;21.10;99.90;;;;;;1879073;75;21073;-69
2021/06/21 00:59:26;;;;;;;9.23;4.60;;;21.10;99.90;;;;;;1877836;75;21158;-69
2021/06/21 01:01:54;;;;;;;9.43;3.92;;;21.10;99.90;;;;;;1877233;75;21097;-69
2021/06/21 01:04:21;;;;;;;11.45;4.65;;;21.10;99.90;;;;;;1865242;75;21093;-68
2021/06/21 01:06:49;;;;;;;7.65;4.60;;;21.10;99.90;;;;;;1882541;75;21065;-68
2021/06/21 01:09:16;;;;;;;9.40;4.67;;;21.00;99.90;;;;;;1879766;75;21648;-68
2021/06/21 01:11:52;;;;;;;9.63;4.33;;;21.10;99.90;;;;;;1878210;75;21553;-69
2021/06/21 01:14:32;;;;;;;9.43;5.08;;;21.10;99.90;;;;;;1878779;75;21142;-69
2021/06/21 01:17:21;;;;;;;10.65;5.20;;;21.00;99.90;;;;;;1865801;75;22128;-68
2021/06/21 01:20:01;;;;;;;10.63;5.22;;;21.00;99.90;;;;;;1864282;75;21127;-68
2021/06/21 01:22:51;;;;;;;12.93;5.92;;;20.90;99.90;;;;;;1842035;76;21096;-71
2021/06/21 01:25:27;;;;;;;10.53;5.80;;;20.90;99.90;;;;;;1876336;75;21088;-69
2021/06/21 01:28:07;;;;;;;11.70;5.53;;;20.90;99.90;;;;;;1878199;75;21105;-69
2021/06/21 01:30:44;;;;;;;12.05;6.03;;;20.90;99.90;;;;;;1876691;76;21080;-69
2021/06/21 01:33:13;;;;;;;15.38;6.37;;;20.90;99.90;;;;;;1877074;75;21109;-69
2021/06/21 01:35:49;;;;;;;11.00;6.08;;;20.90;99.90;;;;;;1878550;75;21158;-69
2021/06/21 01:38:22;;;;;;;16.77;5.80;;;20.90;99.90;;;;;;1879387;75;21080;-68
2021/06/21 01:40:53;;;;;;;12.40;6.25;;;20.90;99.90;;;;;;1881064;75;21136;-69
2021/06/21 01:43:23;;;;;;;9.45;5.12;;;20.90;99.90;;;;;;1880991;75;21017;-68
2021/06/21 01:45:51;;;;;;;14.07;5.47;;;20.90;99.90;;;;;;1884284;75;21096;-69
2021/06/21 01:48:23;;;;;;;12.88;5.50;;;20.90;99.90;;;;;;1854313;76;21029;-69
2021/06/21 01:50:53;;;;;;;7.62;3.90;;;20.80;99.90;;;;;;1848662;76;21084;-70
2021/06/21 01:53:23;;;;;;;9.60;4.12;;;20.80;99.90;;;;;;1871819;75;21096;-69
2021/06/21 01:55:56;;;;;;;8.83;4.03;;;20.80;99.90;;;;;;1846859;77;21609;-69
2021/06/21 01:58:26;;;;;;;6.67;3.60;;;20.80;99.90;;;;;;1857653;75;21084;-69
2021/06/21 02:00:54;;;;;;;11.35;4.25;;;20.80;99.90;;;;;;1870148;75;21151;-69
2021/06/21 02:03:23;;;;;;;10.20;3.90;;;20.80;99.90;;;;;;1878041;75;22307;-70
2021/06/21 02:05:53;;;;;;;10.63;3.62;;;20.80;99.90;;;;;;1866314;75;21072;-69
2021/06/21 02:08:22;;;;;;;8.55;3.40;;;20.80;99.90;;;;;;1869526;75;21096;-70
2021/06/21 02:10:56;;;;;;;12.82;3.90;;;20.80;99.90;;;;;;1847098;77;21053;-69
2021/06/21 02:13:24;;;;;;;10.60;3.58;;;20.80;99.90;;;;;;1873824;75;22669;-69
2021/06/21 02:15:54;;;;;;;10.98;4.08;;;20.70;99.90;;;;;;1884133;75;21146;-69
2021/06/21 02:18:23;;;;;;;9.23;3.35;;;20.70;99.90;;;;;;1865601;76;21507;-69
2021/06/21 02:20:53;;;;;;;8.83;3.47;;;20.70;99.90;;;;;;1874457;76;21014;-69
2021/06/21 02:23:23;;;;;;;6.78;3.67;;;20.70;99.90;;;;;;1879400;75;21064;-69
2021/06/21 02:25:52;;;;;;;8.55;3.00;;;20.70;99.90;;;;;;1877639;75;21594;-69
2021/06/21 02:28:21;;;;;;;11.15;3.25;;;20.70;99.90;;;;;;1878650;75;21073;-69
2021/06/21 02:30:50;;;;;;;10.88;3.35;;;20.70;99.90;;;;;;1868722;75;21123;-69
2021/06/21 02:33:19;;;;;;;9.55;2.85;;;20.60;99.90;;;;;;1878768;75;21053;-69
2021/06/21 02:35:47;;;;;;;9.93;2.87;;;20.60;99.90;;;;;;1878729;75;21073;-69
2021/06/21 02:38:16;;;;;;;8.73;2.80;;;20.60;99.90;;;;;;1861894;75;21093;-69
2021/06/21 02:40:43;;;;;;;7.80;3.05;;;20.60;99.90;;;;;;1846501;77;21088;-69
2021/06/21 02:43:11;;;;;;;7.85;3.08;;;20.60;99.90;;;;;;1870240;75;21072;-68
2021/06/21 02:45:39;;;;;;;9.05;2.83;;;20.60;99.90;;;;;;1878789;75;21085;-69
2021/06/21 02:48:08;;;;;;;17.30;2.83;;;20.60;99.90;;;;;;1856067;76;21112;-68
2021/06/21 02:50:38;;;;;;;8.00;3.17;;;20.50;99.90;;;;;;1868134;75;21042;-69
2021/06/21 02:53:21;;;;;;;9.78;3.22;;;20.40;99.90;;;;;;1879340;75;21135;-69
2021/06/21 02:55:52;;;;;;;;;;;20.40;99.90;;;;;;1849501;77;21544;-68
2021/06/21 02:58:28;;;;;;;6.28;2.60;;;20.40;99.90;;;;;;1864571;75;20123;-68
2021/06/21 03:00:59;;;;;;;10.05;3.47;;;20.30;99.90;;;;;;1877764;75;21096;-69
2021/06/21 03:03:29;;;;;;;6.65;3.25;;;20.30;99.90;;;;;;1880044;75;20996;-69
2021/06/21 03:05:59;;;;;;;9.28;3.65;;;20.30;99.90;;;;;;1873764;75;21002;-69
2021/06/21 03:08:28;;;;;;;8.78;3.70;;;20.20;99.90;;;;;;1877917;75;21025;-69
2021/06/21 03:10:57;;;;;;;10.70;3.80;;;20.20;99.90;;;;;;1847799;77;21030;-69
2021/06/21 03:13:26;;;;;;;8.83;3.33;;;20.20;99.90;;;;;;1876998;75;21050;-70
2021/06/21 03:15:55;;;;;;;10.98;3.72;;;20.20;99.90;;;;;;1880911;75;21069;-70
2021/06/21 03:18:24;;;;;;;8.75;3.37;;;20.10;99.90;;;;;;1868675;75;21663;-69
2021/06/21 03:20:54;;;;;;;13.75;3.67;;;20.10;99.90;;;;;;1878570;76;21081;-69
2021/06/21 03:23:27;;;;;;;7.58;3.77;;;20.10;99.90;;;;;;1861038;75;21175;-69
2021/06/21 03:25:58;;;;;;;11.25;4.30;;;20.00;99.90;;;;;;1877275;75;21123;-69
2021/06/21 03:28:27;;;;;;;10.23;3.90;;;20.00;99.90;;;;;;1879065;75;21065;-69
2021/06/21 03:30:58;;;;;;;8.25;3.90;;;20.00;99.90;;;;;;1880372;75;21084;-70
2021/06/21 03:33:27;;;;;;;10.53;3.77;;;20.00;99.90;;;;;;1862087;75;21614;-69
2021/06/21 03:35:55;;;;;;;10.45;4.28;;;19.90;99.90;;;;;;1862470;75;21495;-69
2021/06/21 03:38:25;;;;;;;10.35;4.28;;;19.90;99.90;;;;;;1878489;75;21574;-69
2021/06/21 03:40:55;;;;;;;9.15;4.35;;;19.90;99.90;;;;;;1878283;75;21084;-69
2021/06/21 03:43:25;;;;;;;9.80;4.58;;;19.90;99.90;;;;;;1878931;75;21138;-69
2021/06/21 03:45:55;;;;;;;10.95;4.58;;;19.80;99.90;;;;;;1881699;75;21081;-69
2021/06/21 03:48:23;;;;;;;10.50;4.97;;;19.80;99.90;;;;;;1873351;75;21046;-68
2021/06/21 03:50:51;;;;;;;9.90;4.20;;;19.80;99.90;;;;;;1877520;76;21559;-69
2021/06/21 03:53:21;;;;;;;10.55;4.42;;;19.80;99.90;;;;;;1877761;75;21100;-69
2021/06/21 03:55:49;;;;;;;7.45;4.37;;;19.80;99.90;;;;;;1878388;75;21575;-70
2021/06/21 03:58:17;;;;;;;9.10;4.50;;;19.80;99.90;;;;;;1878491;75;21127;-69
2021/06/21 04:00:45;;;;;;;13.48;5.00;;;19.70;99.90;;;;;;1873002;75;21175;-69
2021/06/21 04:03:13;;;;;;;8.45;4.53;;;19.70;99.90;;;;;;1864782;75;21565;-70
2021/06/21 04:05:42;;;;;;;8.68;4.00;;;19.60;99.90;;;;;;1873929;75;21084;-70
2021/06/21 04:08:13;;;;;;;7.30;4.37;;;19.60;99.90;;;;;;1878602;75;21100;-70
2021/06/21 04:10:41;;;;;;;9.48;4.58;;;19.50;99.90;;;;;;1847045;77;21108;-70
2021/06/21 04:13:10;;;;;;;10.90;4.55;;;19.50;99.90;;;;;;1859646;75;21519;-70
2021/06/21 04:15:37;;;;;;;9.58;3.98;;;19.50;99.90;;;;;;1878481;75;21154;-70
2021/06/21 04:18:07;;;;;;;8.43;3.90;;;19.50;99.90;;;;;;1874146;75;21186;-70
2021/06/21 04:20:35;;;;;;;7.15;4.10;;;19.50;99.90;;;;;;1882262;75;21199;-70
2021/06/21 04:23:05;;;;;;;7.33;4.37;;;19.50;99.90;;;;;;1876628;76;21591;-70
2021/06/21 04:25:32;;;;;;;6.72;4.25;;;19.40;99.90;;;;;;1879952;75;21029;-69
2021/06/21 04:28:00;;;;;;;6.42;4.05;;;19.40;99.90;;;;;;1879962;75;21046;-70
2021/06/21 04:30:29;;;;;;;7.87;3.95;;;19.40;99.90;;;;;;1878561;75;21653;-70
2021/06/21 04:32:57;;;;;;;7.55;3.72;;;19.40;99.90;;;;;;1879280;75;21112;-70
2021/06/21 04:35:26;;;;;;;9.88;4.05;;;19.40;99.90;;;;;;1876076;75;21675;-70
2021/06/21 04:37:55;;;;;;;8.00;4.25;;;19.40;99.90;;;;;;1878638;75;21121;-70
2021/06/21 04:40:25;;;;;;;5.80;3.75;;;19.40;99.90;;;;;;1878268;75;21070;-70
2021/06/21 04:42:53;;;;;;;8.93;3.92;;;19.40;99.90;;;;;;1878504;75;21162;-70
2021/06/21 04:45:20;;;;;;;6.87;3.45;;;19.40;99.90;;;;;;1879547;75;21339;-70
2021/06/21 04:47:48;;;;;;;7.55;3.20;;;19.40;99.90;;;;;;1881859;75;21023;-70
2021/06/21 04:50:18;;;;;;;4.55;3.47;;;19.30;99.90;;;;;;1878190;76;21072;-70
2021/06/21 04:52:51;;;;;;;4.53;2.72;;;19.30;99.90;;;;;;1878681;75;21081;-70
2021/06/21 04:55:20;;;;;;;4.17;3.10;;;19.30;99.90;;;;;;1878365;75;21831;-70
2021/06/21 04:57:48;;;;;;;5.30;3.30;;;19.30;99.90;;;;;;1878150;75;21077;-70
2021/06/21 05:00:19;;;;;;;5.12;3.12;;;19.30;99.90;;;;;;1881145;75;21116;-70
2021/06/21 05:02:48;;;;;;;4.20;3.08;;;19.30;99.90;;;;;;1871247;75;21014;-70
2021/06/21 05:05:16;;;;;;;6.05;3.02;;;19.20;99.90;;;;;;1878512;75;21155;-69
2021/06/21 05:07:49;;;;;;;5.50;3.10;;;19.30;99.90;;;;;;1881638;75;21602;-69
2021/06/21 05:10:19;;;;;;;7.53;3.10;;;19.30;99.90;;;;;;1875043;75;21574;-69
2021/06/21 05:12:47;;;;;;;4.60;2.90;;;19.30;99.90;;;;;;1883000;75;21057;-69
2021/06/21 05:15:16;;;;;;;8.85;3.42;;;19.20;99.90;;;;;;1878936;76;21081;-69
2021/06/21 05:17:45;;;;;;;2.87;2.58;;;19.20;99.90;;;;;;1901569;73;21153;-71
2021/06/21 05:20:13;;;;;;;3.87;2.85;;;19.20;99.90;;;;;;1917183;75;21220;-73
2021/06/21 05:22:41;;;;;;;5.47;3.37;;;19.30;99.90;;;;;;1917644;75;21061;-72
2021/06/21 05:25:10;;;;;;;4.72;3.55;;;19.20;99.90;;;;;;1917094;74;21072;-72
2021/06/21 05:27:37;;;;;;;4.60;3.30;;;19.20;99.90;;;;;;1906517;74;21092;-72
2021/06/21 05:30:06;;;;;;;6.00;3.50;;;19.20;99.90;;;;;;1895543;75;22148;-73
2021/06/21 05:32:36;;;;;;;5.75;3.67;;;19.20;99.90;;;;;;1894353;75;21029;-72
2021/06/21 05:35:05;;;;;;;5.08;3.50;;;19.10;99.90;;;;;;1883887;75;21001;-73
2021/06/21 05:37:33;;;;;;;4.37;3.90;;;19.20;99.90;;;;;;1891681;75;21041;-73
2021/06/21 05:40:00;;;;;;;6.28;4.10;;;19.20;99.90;;;;;;1897471;75;20998;-73
2021/06/21 05:42:28;;;;;;;8.25;4.80;;;19.10;99.90;;;;;;1896828;75;21025;-72
2021/06/21 05:44:55;;;;;;;6.42;3.83;;;19.20;99.90;;;;;;1898469;75;21507;-73
2021/06/21 05:47:24;;;;;;;6.90;3.85;;;19.20;99.90;;;;;;1897996;74;21134;-73
2021/06/21 05:49:52;;;;;;;6.45;4.37;;;19.20;99.90;;;;;;1898146;75;21522;-73
2021/06/21 05:52:19;;;;;;;5.40;4.00;;;19.20;99.90;;;;;;1898519;75;20993;-75
2021/06/21 05:54:47;;;;;;;5.03;3.80;;;19.10;99.90;;;;;;1898217;75;21130;-76
2021/06/21 05:57:14;;;;;;;5.87;4.20;;;19.10;99.90;;;;;;1898339;74;21041;-77
2021/06/21 05:59:42;;;;;;;5.50;3.90;;;19.10;99.90;;;;;;1895251;75;21142;-76
2021/06/21 06:02:12;;;;;;;5.05;3.95;;;19.10;99.90;;;;;;1895928;75;21370;-77
2021/06/21 06:04:40;;;;;;;8.05;4.05;;;19.10;99.90;;;;;;1879424;75;21161;-75
2021/06/21 06:07:07;;;;;;;5.22;4.08;;;19.10;99.90;;;;;;1874647;75;21123;-76
2021/06/21 06:09:35;;;;;;;4.60;4.10;;;19.10;99.90;;;;;;1905371;74;21046;-76
2021/06/21 06:12:02;;;;;;;4.62;3.50;;;19.10;99.90;;;;;;1937372;74;21050;-74
2021/06/21 06:14:32;;;;;;;5.25;3.65;;;19.10;99.90;;;;;;1892492;74;21107;-74
2021/06/21 06:16:59;;;;;;;6.10;3.10;;;19.10;99.90;;;;;;1892896;75;21555;-79
2021/06/21 06:19:27;;;;;;;4.58;3.42;;;19.10;99.90;;;;;;1894432;75;21029;-78
2021/06/21 06:21:54;;;;;;;3.65;3.15;;;19.00;99.90;;;;;;1886704;74;21124;-77
2021/06/21 06:24:25;;;;;;;4.80;3.17;;;19.10;99.90;;;;;;1888540;74;21120;-75
2021/06/21 06:26:51;;;;;;;4.92;2.75;;;19.00;99.90;;;;;;1886810;75;21253;-76
2021/06/21 06:29:19;;;;;;;3.95;2.60;;;19.10;99.90;;;;;;1887158;75;21205;-75
2021/06/21 06:31:48;;;;;;;4.53;2.77;;;19.00;99.90;;;;;;1887030;75;21691;-77
2021/06/21 06:34:17;;;;;;;4.05;2.85;;;19.00;99.90;;;;;;1887377;75;21128;-74
2021/06/21 06:36:44;;;;;;;2.92;2.55;;;19.00;99.90;;;;;;1887727;75;21173;-74
2021/06/21 06:39:11;;;;;;;3.42;2.70;;;19.10;99.90;;;;;;1886903;75;21088;-75
2021/06/21 06:41:39;;;;;;;4.55;3.33;;;19.10;99.90;;;;;;1887469;75;22864;-76
2021/06/21 06:44:07;;;;;;;4.22;2.58;;;19.10;99.90;;;;;;1888057;75;21609;-75
2021/06/21 06:46:34;;;;;;;3.02;2.70;;;19.10;99.90;;;;;;1888761;75;21132;-75
2021/06/21 06:49:02;;;;;;;2.95;2.45;;;19.10;99.90;;;;;;1887560;75;22640;-76
2021/06/21 06:51:38;;;;;;;3.20;2.90;;;19.00;99.90;;;;;;1888118;75;21139;-75
2021/06/21 06:57:00;;;;;;;7.65;2.72;;;19.00;99.90;;;;;;1884178;74;21175;-78
2021/06/21 06:59:30;;;;;;;4.33;2.83;;;19.00;99.90;;;;;;1882180;74;21217;-75
2021/06/21 07:01:59;;;;;;;3.80;2.55;;;19.00;99.90;;;;;;1885179;74;21364;-77
2021/06/21 07:04:29;;;;;;;3.12;2.33;;;19.10;99.90;;;;;;1887136;74;21115;-75
2021/06/21 07:07:01;;;;;;;3.62;2.55;;;19.00;99.90;;;;;;1886971;74;21165;-75
2021/06/21 07:09:30;;;;;;;;;;;19.10;99.90;;;;;;1888631;74;21085;-74
2021/06/21 07:12:01;;;;;;;2.50;2.10;;;19.00;99.90;;;;;;1888529;75;20121;-73
2021/06/21 07:14:28;;;;;;;3.40;2.00;;;19.10;99.90;;;;;;1894304;74;21573;-75
2021/06/21 07:16:56;;;;;;;3.75;2.22;;;19.10;99.90;;;;;;1895341;74;21163;-74
2021/06/21 07:19:24;;;;;;;1.92;1.70;;;19.00;99.90;;;;;;1898592;75;21163;-75
2021/06/21 07:21:52;;;;;;;2.72;1.85;;;19.10;99.90;;;;;;1864857;75;21186;-75
2021/06/21 07:24:20;;;;;;;2.92;1.35;;;19.10;99.90;;;;;;1884744;75;21643;-74
2021/06/21 07:26:50;;;;;;;1.70;1.40;;;19.10;99.90;;;;;;1897286;74;21116;-75
2021/06/21 07:29:17;;;;;;;2.95;1.40;;;19.00;99.90;;;;;;1890878;75;21100;-75
2021/06/21 07:31:46;;;;;;;1.20;1.00;;;19.10;99.90;;;;;;1889302;74;21169;-75
2021/06/21 07:34:14;;;;;;;2.25;1.40;;;19.10;99.90;;;;;;1871729;75;21100;-75
2021/06/21 07:36:41;;;;;;;1.98;1.10;;;19.10;99.90;;;;;;1868284;75;21115;-74
2021/06/21 07:39:09;;;;;;;2.40;1.50;;;19.10;99.90;;;;;;1897095;75;21316;-74
2021/06/21 07:41:37;;;;;;;3.58;1.52;;;19.10;99.90;;;;;;1865828;75;21684;-74
2021/06/21 07:44:05;;;;;;;4.12;1.62;;;19.10;99.90;;;;;;1876289;75;21385;-76
2021/06/21 07:46:32;;;;;;;6.37;1.60;;;19.10;99.90;;;;;;1900590;74;21327;-73
2021/06/21 07:49:00;;;;;;;2.25;1.22;;;19.10;99.90;;;;;;1888281;74;21129;-73
2021/06/21 07:51:30;;;;;;;1.52;1.25;;;19.10;99.90;;;;;;1889119;74;21158;-73
2021/06/21 07:53:58;;;;;;;2.40;1.45;;;19.10;99.90;;;;;;1883695;75;21651;-72
2021/06/21 07:56:25;;;;;;;1.87;1.25;;;19.10;99.90;;;;;;1884993;75;22119;-73
2021/06/21 07:58:53;;;;;;;5.17;1.50;;;19.20;99.90;;;;;;1881053;75;21080;-74
2021/06/21 08:01:21;;;;;;;2.52;1.50;;;19.20;99.90;;;;;;1891690;74;21036;-77
2021/06/21 08:03:49;;;;;;;2.62;1.40;;;19.20;99.90;;;;;;1890413;75;21145;-74
2021/06/21 08:06:16;;;;;;;2.35;1.40;;;19.20;99.90;;;;;;1886839;75;21627;-73
2021/06/21 08:08:44;;;;;;;2.20;1.22;;;19.20;99.90;;;;;;1896046;75;21092;-74
2021/06/21 08:11:13;;;;;;;3.05;1.10;;;19.30;99.90;;;;;;1895438;75;21095;-74
2021/06/21 08:13:40;;;;;;;1.40;0.82;;;19.30;99.90;;;;;;1889828;74;21099;-74
2021/06/21 08:16:08;;;;;;;2.00;1.07;;;19.30;99.90;;;;;;1891468;74;21197;-74
2021/06/21 08:18:36;;;;;;;1.65;1.15;;;19.30;99.90;;;;;;1889424;74;21143;-74
2021/06/21 08:21:04;;;;;;;1.22;1.10;;;19.30;99.90;;;;;;1891731;74;21109;-71
2021/06/21 08:23:34;;;;;;;2.30;1.30;;;19.30;99.90;;;;;;1889414;74;21139;-70
2021/06/21 08:26:02;;;;;;;1.50;1.12;;;19.40;99.90;;;;;;1893885;74;21636;-71
2021/06/21 08:28:30;;;;;;;2.55;1.02;;;19.40;99.90;;;;;;1889790;75;21222;-71
2021/06/21 08:30:57;;;;;;;3.08;1.02;;;19.30;99.90;;;;;;1883883;74;21111;-75
2021/06/21 08:33:25;;;;;;;2.05;1.07;;;19.30;99.90;;;;;;1896561;75;21049;-71
2021/06/21 08:35:52;;;;;;;2.00;1.05;;;19.40;99.90;;;;;;1892136;75;21057;-69
2021/06/21 08:38:20;;;;;;;1.40;1.05;;;19.40;99.90;;;;;;1897469;75;21112;-70
2021/06/21 08:40:48;;;;;;;2.10;1.15;;;19.40;99.90;;;;;;1889971;74;21078;-71
2021/06/21 08:43:15;;;;;;;5.25;0.90;;;19.40;99.90;;;;;;1879776;75;21139;-71
2021/06/21 08:45:45;;;;;;;1.17;0.93;;;19.50;99.90;;;;;;1893530;75;21111;-69
2021/06/21 08:48:12;;;;;;;2.65;0.78;;;19.50;99.90;;;;;;1897595;75;21213;-70
2021/06/21 08:50:41;;;;;;;2.35;0.95;;;19.50;99.90;;;;;;1892326;75;21149;-71
2021/06/21 08:53:10;;;;;;;1.90;0.93;;;19.50;99.90;;;;;;1887838;74;21088;-70
2021/06/21 08:55:38;;;;;;;2.02;1.20;;;19.50;99.90;;;;;;1913435;74;21057;-70
2021/06/21 08:58:06;;;;;;;2.42;1.02;;;19.50;99.90;;;;;;1884757;74;21083;-72
2021/06/21 09:00:33;;;;;;;2.83;1.05;;;19.50;99.90;;;;;;1897041;75;21076;-69
2021/06/21 09:03:03;;;;;;;3.10;1.10;;;19.50;99.90;;;;;;1882071;75;21158;-70
2021/06/21 09:05:33;;;;;;;1.02;0.70;;;19.60;99.90;;;;;;1897704;74;21406;-70
2021/06/21 09:08:04;;;;;;;2.40;0.90;;;19.60;99.90;;;;;;1884809;75;21617;-72
2021/06/21 09:10:34;;;;;;;1.35;0.80;;;19.60;99.90;;;;;;1900253;74;21045;-70
2021/06/21 09:13:16;;;;;;;2.62;0.50;;;19.70;99.90;;;;;;1877968;75;21044;-70
2021/06/21 09:15:46;;;;;;;1.17;0.65;;;19.70;99.90;;;;;;1887345;75;21842;-70
2021/06/21 09:18:32;;;;;;;1.72;0.70;;;19.80;99.90;;;;;;1897066;75;21625;-70
2021/06/21 09:21:20;;;;;;;1.47;0.60;;;19.70;99.90;;;;;;1885556;75;21546;-70
2021/06/21 09:23:53;;;;;;;1.50;0.60;;;19.80;99.90;;;;;;1896215;75;21048;-69
2021/06/21 09:26:29;;;;;;;1.02;0.60;;;19.80;99.90;;;;;;1896767;75;21181;-69
2021/06/21 09:29:00;;;;;;;0.42;0.40;;;19.80;99.90;;;;;;1894273;75;21100;-69
2021/06/21 09:31:28;;;;;;;1.87;0.60;;;19.80;99.90;;;;;;1895666;74;21100;-70
2021/06/21 09:34:13;;;;;;;0.78;0.70;;;19.70;99.90;;;;;;1895421;75;21080;-69
2021/06/21 09:36:41;;;;;;;2.47;0.50;;;19.70;99.90;;;;;;1894011;74;21621;-70
2021/06/21 09:39:24;;;;;;;1.57;0.57;;;19.70;99.90;;;;;;1897270;75;21819;-71
2021/06/21 09:42:12;;;;;;;0.40;0.40;;;19.70;99.90;;;;;;1877516;75;21072;-70
2021/06/21 09:44:51;;;;;;;0.80;0.65;;;19.70;99.90;;;;;;1891176;74;21169;-70
2021/06/21 09:47:25;;;;;;;3.45;2.67;;;19.70;99.90;;;;;;1865394;76;21135;-73
2021/06/21 09:50:12;;;;;;;1.22;0.70;;;19.60;99.90;;;;;;1871182;75;21108;-71
2021/06/21 09:52:45;;;;;;;0.95;0.60;;;19.60;99.90;;;;;;1897027;74;21084;-68
2021/06/21 09:55:25;;;;;;;0.88;0.70;;;19.60;99.90;;;;;;1877187;75;21183;-70
2021/06/21 09:58:13;;;;;;;2.05;0.70;;;19.70;99.90;;;;;;1865396;77;21212;-70
2021/06/21 10:00:49;;;;;;;0.80;0.70;;;19.60;99.90;;;;;;1888620;74;21241;-69
2021/06/21 10:03:20;;;;;;;0.80;0.70;;;19.60;99.90;;;;;;1868305;75;21189;-71
2021/06/21 10:06:03;;;;;;;1.00;0.70;;;19.70;99.90;;;;;;1892641;75;21135;-70
2021/06/21 10:08:48;;;;;;;1.55;0.90;;;19.70;99.90;;;;;;1896740;74;21147;-70
2021/06/21 10:11:30;;;;;;;4.53;0.80;;;19.70;99.90;;;;;;1898126;74;21093;-69
2021/06/21 10:14:00;;;;;;;2.22;1.00;;;19.70;99.90;;;;;;1894437;75;22438;-69
2021/06/21 10:16:28;;;;;;;0.90;0.90;;;19.70;99.90;;;;;;1896627;75;21087;-71
2021/06/21 10:18:56;;;;;;;1.82;0.80;;;19.70;99.90;;;;;;1894587;75;21157;-70
2021/06/21 10:21:27;;;;;;;2.22;1.00;;;19.80;99.90;;;;;;1869366;75;21103;-69
2021/06/21 10:23:55;;;;;;;1.15;0.95;;;19.80;99.90;;;;;;1866046;75;21187;-71
2021/06/21 10:26:24;;;;;;;2.00;1.40;;;19.80;99.90;;;;;;1868176;75;21080;-72
2021/06/21 10:28:52;;;;;;;1.20;1.10;;;19.80;99.90;;;;;;1885112;75;21052;-70
2021/06/21 10:31:25;;;;;;;1.32;1.12;;;19.80;99.90;;;;;;1879245;75;21091;-70
2021/06/21 10:34:01;;;;;;;2.58;1.20;;;19.80;99.90;;;;;;1896829;75;21014;-74
2021/06/21 10:36:46;;;;;;;1.47;1.37;;;19.80;99.90;;;;;;1876595;74;21494;-70
2021/06/21 10:39:16;;;;;;;3.15;1.05;;;19.80;99.90;;;;;;1880320;74;21096;-70
2021/06/21 10:42:05;;;;;;;1.80;1.50;;;19.80;99.90;;;;;;1877572;74;21621;-71
2021/06/21 10:44:58;;;;;;;1.77;1.47;;;19.80;99.90;;;;;;1880468;75;21119;-71
2021/06/21 10:47:42;;;;;;;1.75;1.62;;;19.80;99.90;;;;;;1889628;74;21217;-71
2021/06/21 10:50:13;;;;;;;1.75;1.65;;;19.80;99.90;;;;;;1892918;75;21099;-73
2021/06/21 10:52:53;;;;;;;2.35;1.92;;;19.80;99.90;;;;;;1883064;75;21108;-71
2021/06/21 10:55:27;;;;;;;3.33;1.80;;;19.80;99.90;;;;;;1883877;75;21551;-71
2021/06/21 10:58:00;;;;;;;2.92;2.08;;;19.80;99.90;;;;;;1888910;74;21140;-70
2021/06/21 11:00:42;;;;;;;2.67;2.15;;;19.80;99.90;;;;;;1887641;74;21057;-71
2021/06/21 11:03:38;;;;;;;3.30;2.35;;;19.80;99.90;;;;;;1893365;74;21169;-71
2021/06/21 11:06:24;;;;;;;2.47;2.02;;;19.80;99.90;;;;;;1885486;74;21115;-74
2021/06/21 11:08:56;;;;;;;3.22;2.33;;;19.80;99.90;;;;;;1885624;74;21655;-71
2021/06/21 11:11:43;;;;;;;4.40;2.25;;;19.80;99.90;;;;;;1896580;75;21197;-72
2021/06/21 11:14:16;;;;;;;4.72;2.62;;;19.80;99.90;;;;;;1873023;74;21052;-72
2021/06/21 11:16:47;;;;;;;2.72;2.22;;;19.80;99.90;;;;;;1889909;75;21056;-74
2021/06/21 11:19:26;;;;;;;5.37;2.87;;;19.90;99.90;;;;;;1897261;75;21104;-72
2021/06/21 11:21:58;;;;;;;3.95;2.65;;;19.90;99.90;;;;;;1901457;74;21083;-73
2021/06/21 11:24:46;;;;;;;8.55;2.90;;;19.90;99.90;;;;;;1897226;75;21095;-73
2021/06/21 11:27:16;;;;;;;4.87;2.70;;;19.90;99.90;;;;;;1896145;74;21084;-72
2021/06/21 11:29:47;;;;;;;3.27;2.87;;;19.90;99.90;;;;;;1895971;74;21502;-73
2021/06/21 11:32:15;;;;;;;2.65;2.40;;;19.90;99.90;;;;;;1895413;75;21081;-73
2021/06/21 11:35:00;;;;;;;4.78;2.87;;;20.00;99.90;;;;;;1890283;75;21561;-72
2021/06/21 11:37:39;;;;;;;3.52;2.95;;;20.00;99.90;;;;;;1893621;75;21132;-73
2021/06/21 11:40:19;;;;;;;4.45;2.95;;;19.90;99.90;;;;;;1894896;75;21084;-73
2021/06/21 11:43:04;;;;;;;2.58;2.37;;;20.00;99.90;;;;;;1907475;74;21096;-73
2021/06/21 11:45:56;;;;;;;4.65;2.60;;;20.00;99.90;;;;;;1890887;74;21064;-74
2021/06/21 11:48:32;;;;;;;4.20;2.50;;;20.00;99.90;;;;;;1897652;75;22238;-74
2021/06/21 11:51:03;;;;;;;3.05;2.50;;;20.00;99.90;;;;;;1895975;74;21075;-74
2021/06/21 11:53:31;;;;;;;3.55;2.30;;;20.00;99.90;;;;;;1885089;74;21183;-72
2021/06/21 11:55:58;;;;;;;2.90;2.58;;;20.10;99.90;;;;;;1887885;75;21103;-73
2021/06/21 11:58:29;;;;;;;2.67;2.25;;;20.10;99.90;;;;;;1889858;75;21056;-73
2021/06/21 12:00:57;;;;;;;3.83;2.42;;;20.10;99.90;;;;;;1887757;75;21091;-73
2021/06/21 12:03:43;;;;;;;2.45;2.25;;;20.10;99.90;;;;;;1905973;74;21099;-74
2021/06/21 12:06:05;;;;;;;2.95;2.42;;;20.10;99.90;;;;;;1890109;75;22219;-74
2021/06/21 12:08:36;;;;;;;2.30;2.08;;;20.10;99.90;;;;;;1884957;74;21169;-72
2021/06/21 12:11:13;;;;;;;2.65;1.98;;;20.20;99.90;;;;;;1887288;74;21135;-74
2021/06/21 12:13:42;;;;;;;2.22;1.90;;;20.20;99.90;;;;;;1884779;75;21077;-73
2021/06/21 12:16:12;;;;;;;2.08;1.87;;;20.30;99.90;;;;;;1883346;75;21167;-73
2021/06/21 12:18:39;;;;;;;2.58;2.30;;;20.30;99.90;;;;;;1894044;74;21166;-73
2021/06/21 12:21:07;;;;;;;3.60;2.22;;;20.40;99.90;;;;;;1886604;75;21170;-73
2021/06/21 12:23:35;;;;;;;2.80;2.10;;;20.40;99.90;;;;;;1894508;74;21156;-75
2021/06/21 12:26:02;;;;;;;2.37;1.72;;;20.50;99.90;;;;;;1897238;74;21104;-73
2021/06/21 12:28:30;;;;;;;2.05;1.57;;;20.50;99.90;;;;;;1881870;74;21131;-74
2021/06/21 12:31:03;;;;;;;1.77;1.50;;;20.60;99.90;;;;;;1881680;75;21099;-73
2021/06/21 12:33:39;;;;;;;1.75;1.47;;;20.70;99.90;;;;;;1879970;75;21048;-73
2021/06/21 12:36:16;;;;;;;1.30;1.20;;;20.60;99.90;;;;;;1893073;74;21403;-72
2021/06/21 12:38:47;;;;;;;3.58;1.05;;;20.70;99.90;;;;;;1881814;75;21182;-72
2021/06/21 12:41:20;;;;;;;4.42;1.30;;;20.70;99.90;;;;;;1880483;74;21553;-72
2021/06/21 12:44:02;;;;;;;1.42;0.90;;;20.70;99.90;;;;;;1868638;75;21105;-72
2021/06/21 12:46:38;;;;;;;1.30;1.10;;;20.80;99.90;;;;;;1884603;75;21593;-72
2021/06/21 12:49:09;;;;;;;2.60;1.85;;;20.70;99.90;;;;;;1884871;75;21060;-71
2021/06/21 12:51:37;;;;;;;1.47;1.07;;;20.80;99.90;;;;;;1875322;75;21149;-72
2021/06/21 12:54:05;;;;;;;1.42;1.30;;;20.80;99.90;;;;;;1897942;75;21175;-71
2021/06/21 12:56:36;;;;;;;1.45;1.07;;;20.90;99.90;;;;;;1902394;74;21163;-71
2021/06/21 12:59:05;;;;;;;1.90;1.33;;;20.80;99.90;;;;;;1895949;75;21714;-72
2021/06/21 13:01:36;;;;;;;1.10;1.07;;;20.90;99.90;;;;;;1882492;75;21296;-72
2021/06/21 13:04:17;;;;;;;1.00;0.90;;;20.90;99.90;;;;;;1896089;75;21072;-72
2021/06/21 13:06:47;;;;;;;11.12;7.72;;;20.90;99.90;;;;;;1897288;75;21119;-72